createdAt,value
2022-11-24T00:01:31.449Z,8.79
2022-11-24T00:04:05.478Z,8.69
2022-11-24T00:06:37.293Z,8.93
2022-11-24T00:09:10.576Z,8.92
2022-11-24T00:11:42.149Z,9.00
2022-11-24T00:14:13.911Z,8.78
2022-11-24T00:16:46.802Z,9.38
2022-11-24T00:19:20.077Z,9.21
2022-11-24T00:21:52.341Z,9.39
2022-11-24T00:24:24.138Z,9.04
2022-11-24T00:26:56.730Z,9.15
2022-11-24T00:29:29.592Z,9.08
2022-11-24T00:32:02.375Z,9.13
2022-11-24T00:34:35.656Z,9.41
2022-11-24T00:37:08.770Z,9.21
2022-11-24T00:39:42.135Z,9.23
2022-11-24T00:42:14.952Z,9.43
2022-11-24T00:44:47.845Z,8.98
2022-11-24T00:47:21.336Z,8.88
2022-11-24T00:49:55.569Z,8.57
2022-11-24T00:52:28.573Z,8.87
2022-11-24T00:55:02.065Z,8.77
2022-11-24T00:57:35.502Z,8.67
2022-11-24T01:00:09.061Z,9.02
2022-11-24T01:02:42.152Z,8.94
2022-11-24T01:05:14.911Z,8.90
2022-11-24T01:07:47.843Z,8.85
2022-11-24T01:10:20.766Z,8.99
2022-11-24T01:12:54.008Z,9.06
2022-11-24T01:15:27.380Z,9.05
2022-11-24T01:18:00.040Z,9.02
2022-11-24T01:20:32.953Z,8.77
2022-11-24T01:23:06.378Z,9.43
2022-11-24T01:25:39.925Z,9.57
2022-11-24T01:28:14.213Z,9.56
2022-11-24T01:30:57.188Z,9.73
2022-11-24T01:33:30.778Z,9.07
2022-11-24T01:36:05.468Z,9.21
2022-11-24T01:38:38.280Z,9.02
2022-11-24T01:41:14.046Z,9.05
2022-11-24T01:43:47.047Z,8.97
2022-11-24T01:46:30.921Z,8.93
2022-11-24T01:49:18.852Z,9.11
2022-11-24T01:51:57.840Z,9.07
2022-11-24T01:54:41.459Z,9.04
2022-11-24T01:57:24.527Z,9.64
2022-11-24T02:00:07.406Z,9.49
2022-11-24T02:02:43.109Z,9.43
2022-11-24T02:05:22.627Z,8.91
2022-11-24T02:08:00.477Z,9.20
2022-11-24T02:10:33.442Z,9.09
2022-11-24T02:13:06.362Z,8.67
2022-11-24T02:15:39.294Z,9.32
2022-11-24T02:18:12.067Z,9.37
2022-11-24T02:20:44.901Z,9.38
2022-11-24T02:23:39.304Z,9.84
2022-11-24T02:26:30.715Z,9.93
2022-11-24T02:29:03.503Z,9.79
2022-11-24T02:31:36.494Z,9.43
2022-11-24T02:34:09.917Z,9.09
2022-11-24T02:36:42.987Z,9.22
2022-11-24T02:39:16.696Z,9.31
2022-11-24T02:42:05.135Z,9.55
2022-11-24T02:44:49.813Z,9.87
2022-11-24T02:47:23.463Z,9.27
2022-11-24T02:49:56.277Z,9.50
2022-11-24T02:52:29.026Z,9.15
2022-11-24T02:55:02.567Z,8.92
2022-11-24T02:57:36.046Z,9.04
2022-11-24T03:00:10.250Z,8.92
2022-11-24T03:02:43.140Z,8.96
2022-11-24T03:05:16.105Z,9.03
2022-11-24T03:07:49.909Z,9.00
2022-11-24T03:10:22.771Z,8.73
2022-11-24T03:12:55.546Z,8.89
2022-11-24T03:15:28.858Z,8.98
2022-11-24T03:18:02.135Z,8.81
2022-11-24T03:20:35.737Z,8.82
2022-11-24T03:23:08.898Z,8.96
2022-11-24T03:25:42.226Z,8.86
2022-11-24T03:28:14.966Z,9.06
2022-11-24T03:30:50.757Z,8.65
2022-11-24T03:33:24.404Z,9.03
2022-11-24T03:35:57.233Z,8.67
2022-11-24T03:38:30.184Z,8.93
2022-11-24T03:41:04.255Z,9.04
2022-11-24T03:43:43.153Z,8.92
2022-11-24T03:46:17.770Z,9.07
2022-11-24T03:48:51.180Z,9.14
2022-11-24T03:51:23.945Z,9.12
2022-11-24T03:53:56.653Z,9.02
2022-11-24T03:56:29.510Z,8.85
2022-11-24T03:59:02.311Z,8.86
2022-11-24T04:01:35.193Z,8.64
2022-11-24T04:04:11.343Z,8.54
2022-11-24T04:06:45.144Z,8.61
2022-11-24T04:09:18.235Z,8.54
2022-11-24T04:11:51.653Z,8.72
2022-11-24T04:14:25.047Z,8.80
2022-11-24T04:16:58.002Z,8.75
2022-11-24T04:19:30.932Z,8.95
2022-11-24T04:22:03.812Z,8.91
2022-11-24T04:24:37.277Z,9.01
2022-11-24T04:27:10.564Z,8.85
2022-11-24T04:29:43.586Z,8.93
2022-11-24T04:32:17.374Z,8.83
2022-11-24T04:34:50.593Z,8.41
2022-11-24T04:37:23.553Z,8.73
2022-11-24T04:39:56.502Z,8.53
2022-11-24T04:42:29.529Z,8.41
2022-11-24T04:45:02.744Z,8.44
2022-11-24T04:47:35.829Z,8.35
2022-11-24T04:50:09.634Z,8.45
2022-11-24T04:52:43.233Z,8.47
2022-11-24T04:55:16.284Z,8.45
2022-11-24T04:57:49.498Z,8.71
2022-11-24T05:00:22.790Z,8.66
2022-11-24T05:02:55.417Z,8.51
2022-11-24T05:05:28.388Z,8.58
2022-11-24T05:08:01.796Z,8.45
2022-11-24T05:10:35.617Z,8.44
2022-11-24T05:13:14.383Z,8.38
2022-11-24T05:15:47.330Z,8.36
2022-11-24T05:18:20.173Z,8.36
2022-11-24T05:20:53.052Z,8.30
2022-11-24T05:23:27.097Z,8.39
2022-11-24T05:26:01.333Z,8.39
2022-11-24T05:28:34.474Z,8.41
2022-11-24T05:31:07.971Z,8.31
2022-11-24T05:33:41.249Z,8.37
2022-11-24T05:36:14.109Z,8.52
2022-11-24T05:38:47.289Z,8.62
2022-11-24T05:41:20.393Z,8.60
2022-11-24T05:43:53.830Z,8.66
2022-11-24T05:46:26.829Z,8.75
2022-11-24T05:48:59.842Z,8.74
2022-11-24T05:51:32.574Z,8.57
2022-11-24T05:54:05.598Z,8.62
2022-11-24T05:56:38.717Z,8.64
2022-11-24T05:59:13.394Z,8.68
2022-11-24T06:01:46.327Z,8.77
2022-11-24T06:04:19.833Z,8.79
2022-11-24T06:06:53.609Z,8.62
2022-11-24T06:09:27.160Z,8.68
2022-11-24T06:11:59.994Z,8.71
2022-11-24T06:14:33.979Z,8.59
2022-11-24T06:17:08.126Z,8.47
2022-11-24T06:19:42.412Z,8.46
2022-11-24T06:22:15.480Z,8.48
2022-11-24T06:24:48.823Z,8.51
2022-11-24T06:27:22.797Z,8.46
2022-11-24T06:29:55.542Z,8.47
2022-11-24T06:32:28.773Z,8.47
2022-11-24T06:35:01.939Z,8.43
2022-11-24T06:37:36.346Z,8.47
2022-11-24T06:40:10.170Z,8.64
2022-11-24T06:42:49.408Z,8.54
2022-11-24T06:45:23.382Z,8.62
2022-11-24T06:47:56.608Z,8.66
2022-11-24T06:50:33.546Z,8.61
2022-11-24T06:53:07.397Z,8.65
2022-11-24T06:55:42.148Z,8.84
2022-11-24T06:58:14.998Z,8.84
2022-11-24T07:00:48.414Z,8.78
2022-11-24T07:03:23.746Z,9.01
2022-11-24T07:05:58.369Z,8.91
2022-11-24T07:08:31.599Z,9.07
2022-11-24T07:11:11.370Z,8.82
2022-11-24T07:13:46.396Z,8.73
2022-11-24T07:16:25.564Z,8.80
2022-11-24T07:18:59.722Z,8.75
2022-11-24T07:21:32.556Z,8.86
2022-11-24T07:24:05.990Z,8.95
2022-11-24T07:26:40.159Z,8.96
2022-11-24T07:29:21.112Z,9.04
2022-11-24T07:31:55.530Z,9.15
2022-11-24T07:34:29.738Z,9.27
2022-11-24T07:37:04.265Z,9.14
2022-11-24T07:39:38.176Z,9.20
2022-11-24T07:42:13.333Z,9.57
2022-11-24T07:44:46.596Z,9.63
2022-11-24T07:47:20.675Z,9.90
2022-11-24T07:49:54.803Z,10.29
2022-11-24T07:52:28.087Z,10.44
2022-11-24T07:55:01.242Z,11.85
2022-11-24T07:57:37.742Z,13.07
2022-11-24T08:00:13.500Z,15.61
2022-11-24T08:02:47.805Z,16.20
2022-11-24T08:05:22.341Z,17.16
2022-11-24T08:07:55.790Z,17.01
2022-11-24T08:10:28.680Z,16.86
2022-11-24T08:13:02.966Z,16.88
2022-11-24T08:15:36.005Z,17.38
2022-11-24T08:18:09.883Z,17.92
2022-11-24T08:20:43.257Z,17.82
2022-11-24T08:23:16.310Z,18.64
2022-11-24T08:25:55.607Z,19.59
2022-11-24T08:28:29.937Z,18.51
2022-11-24T08:31:13.261Z,19.64
2022-11-24T08:33:47.210Z,19.79
2022-11-24T08:36:21.674Z,19.21
2022-11-24T08:38:58.652Z,19.81
2022-11-24T08:41:33.084Z,15.29
2022-11-24T08:44:06.539Z,14.85
2022-11-24T08:46:40.498Z,13.86
2022-11-24T08:49:16.873Z,13.85
2022-11-24T08:51:50.980Z,12.66
2022-11-24T08:54:25.936Z,11.98
2022-11-24T08:57:00.262Z,11.96
2022-11-24T08:59:34.462Z,12.12
2022-11-24T09:02:12.390Z,12.33
2022-11-24T09:04:45.470Z,12.12
2022-11-24T09:07:19.962Z,12.10
2022-11-24T09:09:53.712Z,12.25
2022-11-24T09:12:27.961Z,12.34
2022-11-24T09:15:01.337Z,13.12
2022-11-24T09:17:34.798Z,12.60
2022-11-24T09:20:08.448Z,13.98
2022-11-24T09:22:42.836Z,13.80
2022-11-24T09:25:15.765Z,13.16
2022-11-24T09:27:51.125Z,16.17
2022-11-24T09:30:24.370Z,18.25
2022-11-24T09:32:57.781Z,15.36
2022-11-24T09:35:32.616Z,14.82
2022-11-24T09:38:06.028Z,14.74
2022-11-24T09:40:39.888Z,16.94
2022-11-24T09:43:45.827Z,15.16
2022-11-24T09:46:43.640Z,14.65
2022-11-24T09:49:42.459Z,15.39
2022-11-24T09:52:37.489Z,18.54
2022-11-24T09:55:37.027Z,14.36
2022-11-24T09:58:27.786Z,13.31
2022-11-24T10:01:29.308Z,12.95
2022-11-24T10:04:31.799Z,12.39
2022-11-24T10:07:35.579Z,12.05
2022-11-24T10:10:59.588Z,12.27
2022-11-24T10:14:36.546Z,14.89
2022-11-24T10:17:40.259Z,17.68
2022-11-24T10:20:35.886Z,16.73
2022-11-24T10:23:33.546Z,15.10
2022-11-24T10:26:34.096Z,15.05
2022-11-24T10:29:42.163Z,15.89
2022-11-24T10:32:35.286Z,14.71
2022-11-24T10:35:21.812Z,14.73
2022-11-24T10:38:20.173Z,14.39
2022-11-24T10:41:13.325Z,14.43
2022-11-24T10:43:46.661Z,15.52
2022-11-24T10:46:28.688Z,16.98
2022-11-24T10:49:05.090Z,18.55
2022-11-24T10:51:46.525Z,20.28
2022-11-24T10:54:23.417Z,21.24
2022-11-24T10:56:56.339Z,22.66
2022-11-24T10:59:37.556Z,24.08
2022-11-24T11:02:34.016Z,22.67
2022-11-24T11:05:31.860Z,19.82
2022-11-24T11:08:13.936Z,21.10
2022-11-24T11:11:08.269Z,21.89
2022-11-24T11:14:02.910Z,23.37
2022-11-24T11:16:57.337Z,21.81
2022-11-24T11:19:49.995Z,22.81
2022-11-24T11:22:33.017Z,21.93
2022-11-24T11:25:14.424Z,24.10
2022-11-24T11:27:48.653Z,23.46
2022-11-24T11:36:21.027Z,22.70
2022-11-24T11:38:54.890Z,23.18
2022-11-24T11:41:33.681Z,20.70
2022-11-24T11:44:23.534Z,21.08
2022-11-24T11:46:59.501Z,20.31
2022-11-24T11:49:38.385Z,18.96
2022-11-24T11:52:38.081Z,17.62
2022-11-24T11:55:50.053Z,19.44
2022-11-24T11:58:38.278Z,19.47
2022-11-24T12:01:39.535Z,17.29
2022-11-24T12:04:16.402Z,16.09
2022-11-24T12:07:22.461Z,15.69
2022-11-24T12:10:01.004Z,15.41
2022-11-24T12:13:28.975Z,18.60
2022-11-24T12:16:25.455Z,20.64
2022-11-24T12:19:14.048Z,22.33
2022-11-24T12:21:55.483Z,21.26
2022-11-24T12:24:50.903Z,20.91
2022-11-24T12:27:51.390Z,20.16
2022-11-24T12:30:25.488Z,17.48
2022-11-24T12:33:14.714Z,17.38
2022-11-24T12:36:10.656Z,20.52
2022-11-24T12:38:56.052Z,22.09
2022-11-24T12:42:18.181Z,23.07
2022-11-24T12:44:57.390Z,22.54
2022-11-24T12:47:53.115Z,22.63
2022-11-24T12:50:29.829Z,23.36
2022-11-24T12:53:18.877Z,24.86
2022-11-24T12:55:54.545Z,24.31
2022-11-24T12:58:50.837Z,24.73
2022-11-24T13:01:36.237Z,23.55
2022-11-24T13:04:30.921Z,22.06
2022-11-24T13:07:14.091Z,23.53
2022-11-24T13:10:40.433Z,23.46
2022-11-24T13:13:18.299Z,23.12
2022-11-24T13:16:28.537Z,21.65
2022-11-24T13:18:55.225Z,21.37
2022-11-24T13:21:28.351Z,20.97
2022-11-24T13:24:05.922Z,18.98
2022-11-24T13:26:42.117Z,19.47
2022-11-24T13:29:27.454Z,23.23
2022-11-24T13:32:03.201Z,23.18
2022-11-24T13:34:39.422Z,23.37
2022-11-24T13:37:31.868Z,24.13
2022-11-24T13:40:12.264Z,23.66
2022-11-24T13:42:54.788Z,22.11
2022-11-24T13:45:39.948Z,21.63
2022-11-24T13:48:19.453Z,21.21
2022-11-24T13:50:52.547Z,22.08
2022-11-24T13:53:40.985Z,22.39
2022-11-24T13:56:13.928Z,21.51
2022-11-24T13:59:00.434Z,20.57
2022-11-24T14:01:37.115Z,19.01
2022-11-24T14:04:33.288Z,17.54
2022-11-24T14:07:14.940Z,16.32
2022-11-24T14:09:52.090Z,16.28
2022-11-24T14:12:26.623Z,15.95
2022-11-24T14:15:23.675Z,15.02
2022-11-24T14:17:56.494Z,15.03
2022-11-24T14:20:30.974Z,14.74
2022-11-24T14:23:10.098Z,14.06
2022-11-24T14:25:53.539Z,13.29
2022-11-24T14:28:29.203Z,12.93
2022-11-24T14:31:20.803Z,13.32
2022-11-24T14:34:16.667Z,13.34
2022-11-24T14:36:52.285Z,12.57
2022-11-24T14:39:27.497Z,12.85
2022-11-24T14:42:04.916Z,13.03
2022-11-24T14:44:40.639Z,12.60
2022-11-24T14:47:30.550Z,12.57
2022-11-24T14:50:15.323Z,12.95
2022-11-24T14:52:57.775Z,13.45
2022-11-24T14:55:33.505Z,13.13
2022-11-24T14:58:31.871Z,13.73
2022-11-24T15:01:18.638Z,13.59
2022-11-24T15:07:28.392Z,13.32
2022-11-24T15:10:07.057Z,13.43
2022-11-24T15:12:51.465Z,13.45
2022-11-24T15:15:35.505Z,13.75
2022-11-24T15:18:28.965Z,13.91
2022-11-24T15:21:03.606Z,12.91
2022-11-24T15:23:37.484Z,13.46
2022-11-24T15:26:11.778Z,13.52
2022-11-24T15:28:48.394Z,13.20
2022-11-24T15:31:24.738Z,13.28
2022-11-24T15:33:59.136Z,13.39
2022-11-24T15:36:34.679Z,12.95
2022-11-24T15:39:07.941Z,12.70
2022-11-24T15:41:45.269Z,12.92
2022-11-24T15:44:19.722Z,12.56
2022-11-24T15:46:57.126Z,12.24
2022-11-24T15:49:30.997Z,12.39
2022-11-24T15:52:05.810Z,12.35
2022-11-24T15:54:40.840Z,12.09
2022-11-24T15:57:15.802Z,12.20
2022-11-24T15:59:49.473Z,12.16
2022-11-24T16:02:24.784Z,12.06
2022-11-24T16:04:58.303Z,11.62
2022-11-24T16:07:32.702Z,12.00
2022-11-24T16:10:36.056Z,12.00
2022-11-24T16:13:10.205Z,11.80
2022-11-24T16:15:45.806Z,11.73
2022-11-24T16:18:20.187Z,11.78
2022-11-24T16:20:58.187Z,11.79
2022-11-24T16:23:32.282Z,11.69
2022-11-24T16:26:06.943Z,11.62
2022-11-24T16:28:41.383Z,11.74
2022-11-24T16:31:16.773Z,11.74
2022-11-24T16:33:50.506Z,11.60
2022-11-24T16:36:25.587Z,11.71
2022-11-24T16:38:59.959Z,11.67
2022-11-24T16:41:34.040Z,11.58
2022-11-24T16:44:07.813Z,11.51
2022-11-24T16:46:43.147Z,11.65
2022-11-24T16:49:18.605Z,11.57
2022-11-24T16:51:55.040Z,11.53
2022-11-24T16:54:28.479Z,11.59
2022-11-24T16:57:14.506Z,11.47
2022-11-24T16:59:48.650Z,11.44
2022-11-24T17:02:24.283Z,11.35
2022-11-24T17:04:58.846Z,11.36
2022-11-24T17:07:40.691Z,11.37
2022-11-24T17:10:15.499Z,11.27
2022-11-24T17:12:59.404Z,11.24
2022-11-24T17:15:48.414Z,11.12
2022-11-24T17:18:45.069Z,11.03
2022-11-24T17:21:33.786Z,11.27
2022-11-24T17:24:26.261Z,11.15
2022-11-24T17:27:18.716Z,11.07
2022-11-24T17:30:11.589Z,11.12
2022-11-24T17:33:04.165Z,11.16
2022-11-24T17:36:01.492Z,11.19
2022-11-24T17:38:53.944Z,11.30
2022-11-24T17:41:46.429Z,11.10
2022-11-24T17:44:38.885Z,11.05
2022-11-24T17:47:31.377Z,10.97
2022-11-24T17:50:26.009Z,11.03
2022-11-24T17:53:19.102Z,10.84
2022-11-24T17:56:13.892Z,10.98
2022-11-24T17:59:06.352Z,10.81
2022-11-24T18:01:58.861Z,10.76
2022-11-24T18:04:51.349Z,10.87
2022-11-24T18:07:43.826Z,11.00
2022-11-24T18:10:36.303Z,10.85
2022-11-24T18:13:54.816Z,10.80
2022-11-24T18:16:42.712Z,10.84
2022-11-24T18:19:30.879Z,11.05
2022-11-24T18:22:05.232Z,10.88
2022-11-24T18:24:38.287Z,11.04
2022-11-24T18:27:11.596Z,11.06
2022-11-24T18:29:44.503Z,11.07
2022-11-24T18:32:17.428Z,11.12
2022-11-24T18:34:50.685Z,10.84
2022-11-24T18:37:23.506Z,11.17
2022-11-24T18:39:56.468Z,11.08
2022-11-24T18:42:29.673Z,10.94
2022-11-24T18:45:02.484Z,11.06
2022-11-24T18:47:35.407Z,11.06
2022-11-24T18:50:08.869Z,11.08
2022-11-24T18:52:43.049Z,11.04
2022-11-24T18:55:16.203Z,10.97
2022-11-24T18:57:49.431Z,11.02
2022-11-24T19:00:22.575Z,10.97
2022-11-24T19:06:23.682Z,10.51
2022-11-24T19:08:56.867Z,10.74
2022-11-24T19:11:36.033Z,10.88
2022-11-24T19:14:16.485Z,10.76
2022-11-24T19:16:51.323Z,10.59
2022-11-24T19:19:24.534Z,10.56
2022-11-24T19:21:58.358Z,10.63
2022-11-24T19:24:31.249Z,10.56
2022-11-24T19:27:04.131Z,10.43
2022-11-24T19:29:42.849Z,10.45
2022-11-24T19:32:17.653Z,10.53
2022-11-24T19:34:51.227Z,10.52
2022-11-24T19:37:24.293Z,10.48
2022-11-24T19:39:57.523Z,10.21
2022-11-24T19:42:31.642Z,10.51
2022-11-24T19:45:05.083Z,10.53
2022-11-24T19:47:38.739Z,10.57
2022-11-24T19:50:16.024Z,10.56
2022-11-24T19:52:49.632Z,10.61
2022-11-24T19:55:23.738Z,10.48
2022-11-24T19:57:57.815Z,10.46
2022-11-24T20:00:32.175Z,10.44
2022-11-24T20:03:05.532Z,10.34
2022-11-24T20:05:40.170Z,10.46
2022-11-24T20:08:14.412Z,10.45
2022-11-24T20:10:48.485Z,10.37
2022-11-24T20:13:21.842Z,10.31
2022-11-24T20:15:56.619Z,10.38
2022-11-24T20:18:30.965Z,10.43
2022-11-24T20:21:08.227Z,10.35
2022-11-24T20:23:42.567Z,10.38
2022-11-24T20:26:20.026Z,10.36
2022-11-24T20:28:56.990Z,10.40
2022-11-24T20:31:40.407Z,10.37
2022-11-24T20:34:14.447Z,10.44
2022-11-24T20:36:47.822Z,10.29
2022-11-24T20:39:24.861Z,10.12
2022-11-24T20:41:57.814Z,10.29
2022-11-24T20:44:31.651Z,10.10
2022-11-24T20:47:05.293Z,10.18
2022-11-24T20:49:38.544Z,9.88
2022-11-24T20:52:12.881Z,9.84
2022-11-24T20:54:45.819Z,9.92
2022-11-24T20:57:18.664Z,10.07
2022-11-24T20:59:53.611Z,10.25
2022-11-24T21:02:26.748Z,10.23
2022-11-24T21:05:00.127Z,10.28
2022-11-24T21:07:33.203Z,10.17
2022-11-24T21:10:07.082Z,10.27
2022-11-24T21:12:41.033Z,10.21
2022-11-24T21:15:14.949Z,10.21
2022-11-24T21:17:48.713Z,10.22
2022-11-24T21:20:25.716Z,10.25
2022-11-24T21:22:59.063Z,10.19
2022-11-24T21:25:33.698Z,10.17
2022-11-24T21:28:07.844Z,10.28
2022-11-24T21:30:41.536Z,10.29
2022-11-24T21:33:15.744Z,10.30
2022-11-24T21:35:53.001Z,10.23
2022-11-24T21:38:30.021Z,10.11
2022-11-24T21:41:06.144Z,10.27
2022-11-24T21:43:39.923Z,9.95
2022-11-24T21:46:16.306Z,10.09
2022-11-24T21:48:50.424Z,10.13
2022-11-24T21:51:24.208Z,10.28
2022-11-24T21:54:03.202Z,10.22
2022-11-24T21:56:36.962Z,10.16
2022-11-24T21:59:11.169Z,10.26
2022-11-24T22:01:46.403Z,10.37
2022-11-24T22:04:31.258Z,10.36
2022-11-24T22:07:09.885Z,10.28
2022-11-24T22:09:50.706Z,10.28
2022-11-24T22:12:43.197Z,10.43
2022-11-24T22:15:36.656Z,10.47
2022-11-24T22:18:34.560Z,10.37
2022-11-24T22:21:27.041Z,10.41
2022-11-24T22:24:22.995Z,10.36
2022-11-24T22:27:19.463Z,10.19
2022-11-24T22:30:12.086Z,10.23
2022-11-24T22:33:04.537Z,10.33
2022-11-24T22:35:58.224Z,10.18
2022-11-24T22:39:12.171Z,10.20
2022-11-24T22:42:04.732Z,10.32
2022-11-24T22:44:57.373Z,10.38
2022-11-24T22:47:54.036Z,10.39
2022-11-24T22:50:46.592Z,10.27
2022-11-24T22:53:40.085Z,10.36
2022-11-24T22:56:33.750Z,10.29
2022-11-24T22:59:26.185Z,10.39
2022-11-24T23:02:18.681Z,10.29
2022-11-24T23:05:11.149Z,10.48
2022-11-24T23:08:03.792Z,10.37
2022-11-24T23:11:06.255Z,10.35
2022-11-24T23:13:59.269Z,10.39
2022-11-24T23:16:54.064Z,10.41
2022-11-24T23:19:46.572Z,10.10
2022-11-24T23:22:39.037Z,10.40
2022-11-24T23:25:33.901Z,9.92
2022-11-24T23:28:26.393Z,9.91
2022-11-24T23:31:23.060Z,9.98
2022-11-24T23:34:15.534Z,9.83
2022-11-24T23:37:07.990Z,10.23
2022-11-24T23:40:00.472Z,10.42
2022-11-24T23:42:52.971Z,10.46
2022-11-24T23:45:45.494Z,10.48
2022-11-24T23:48:39.033Z,10.40
2022-11-24T23:51:33.252Z,10.53
2022-11-24T23:54:25.721Z,10.27
2022-11-24T23:57:18.175Z,10.52
